Peerless, MT (59253)

12:16 AM MDT on May 05, 2015 (GMT -0600)
Ossette | | Change Station
CLOSE
Current Station
Personal Weather Station
Location: Montana, MT
Elevation: 2936 ft
Nearby Weather Stations

Elev 2936 ft 48.56 °N, 106.05 °W | Updated 1 second ago

Clear
Clear
48.7 °F
Feels Like 43 °F
N
16.1
Wind Variable Wind from SE
Gusts 26.0 mph

Today
High -- | Low -- °F
--% Chance of Precip.
Yesterday
High -- | Low -- °F
Precip. -- in
5:36 AM 8:24 PM
Full, 99% visible
Pressure 29.93 in
Visibility 10.0 miles
Clouds Clear
Windchill 43 °F
Dew Point 35 °F
Humidity 56%
Rainfall 0.00 in
Snow Depth Not available.
UV 0 out of 12
Pollen 10.30 out of 12
Air Quality Not available.
Flu Activity Local Activity
METAR KOLF 050553Z AUTO 07007KT 10SM CLR 12/02 A2993 RMK AO2 SLP134 T01170017 10222 20111 58002

More Conditions Fewer Conditions

Pressure 29.93 in
Visibility 10.0 miles
Clouds Clear
Windchill 43 °F
Dew Point 35 °F
Humidity 56%
Rainfall 0.00 in
Snow Depth Not available.
UV 0 out of 12
Pollen 10.30 out of 12
Air Quality Not available.
Flu Activity Local Activity
METAR KOLF 050553Z AUTO 07007KT 10SM CLR 12/02 A2993 RMK AO2 SLP134 T01170017 10222 20111 58002

More Conditions Fewer Conditions

Nepal has a long way to go to dig out and rebuild from a devastating earthquake. We have teamed up with several charities and organizations to make contributing to the relief effort as easy as possible.
How you can help: Portlight Strategies | Red Cross

10-Day Weather Forecast

Almanac

Astronomy

May. 05, 2015 Rise Set
Actual Time
Civil Twilight
Nautical Twilight
Astronomical Twilight
Moon
Length of Visible Light
Length of Day
Tomorrow will be .
, % of the Moon is Illuminated

Today's Extremes

State Highs State Lows

Community

WunderPhotos

Upload Photos

1,818,814 photos uploaded!

WunderBlogs® & News

Nearby

Air Quality

  Air Quality AQ Index Pollutant
Not available.

Snow Depth

Station Depth Elevation

Earthquake Activity

City Distance Mag. Time & Date
Minimum magnitude displayed is 2.5.

Coastal Water Temperatures

Place Temperature

Stations

Nearby Weather Stations

Station Location Temp. Windchill Dew Point Humidity Wind Precip. Elev Updated Type